sensor_id;sensor_type;location;lat;lon;timestamp;P1;durP1;ratioP1;P2;durP2;ratioP2
57317;SDS011;43157;50.982;18.132;2022-09-01T00:01:42;6.30;;;1.80;;
57317;SDS011;43157;50.982;18.132;2022-09-01T00:04:11;6.20;;;2.00;;
57317;SDS011;43157;50.982;18.132;2022-09-01T00:06:39;11.90;;;2.20;;
57317;SDS011;43157;50.982;18.132;2022-09-01T00:09:07;10.30;;;2.10;;
57317;SDS011;43157;50.982;18.132;2022-09-01T00:11:37;9.10;;;2.10;;
57317;SDS011;43157;50.982;18.132;2022-09-01T00:14:05;7.60;;;2.10;;
57317;SDS011;43157;50.982;18.132;2022-09-01T00:16:32;9.90;;;2.00;;
57317;SDS011;43157;50.982;18.132;2022-09-01T00:18:58;6.00;;;1.80;;
57317;SDS011;43157;50.982;18.132;2022-09-01T00:21:26;8.80;;;2.00;;
57317;SDS011;43157;50.982;18.132;2022-09-01T00:23:53;7.40;;;2.30;;
57317;SDS011;43157;50.982;18.132;2022-09-01T00:26:20;8.30;;;2.50;;
57317;SDS011;43157;50.982;18.132;2022-09-01T00:28:45;7.90;;;2.10;;
57317;SDS011;43157;50.982;18.132;2022-09-01T00:31:11;8.50;;;1.80;;
57317;SDS011;43157;50.982;18.132;2022-09-01T00:33:39;9.10;;;1.70;;
57317;SDS011;43157;50.982;18.132;2022-09-01T00:36:05;10.10;;;2.30;;
57317;SDS011;43157;50.982;18.132;2022-09-01T00:38:32;9.70;;;2.10;;
57317;SDS011;43157;50.982;18.132;2022-09-01T00:40:59;8.50;;;2.30;;
57317;SDS011;43157;50.982;18.132;2022-09-01T00:43:39;7.60;;;1.90;;
57317;SDS011;43157;50.982;18.132;2022-09-01T00:46:12;7.90;;;1.80;;
57317;SDS011;43157;50.982;18.132;2022-09-01T00:48:40;7.60;;;2.10;;
57317;SDS011;43157;50.982;18.132;2022-09-01T00:51:06;8.50;;;2.00;;
57317;SDS011;43157;50.982;18.132;2022-09-01T00:53:34;7.50;;;2.20;;
57317;SDS011;43157;50.982;18.132;2022-09-01T00:56:01;8.30;;;2.00;;
57317;SDS011;43157;50.982;18.132;2022-09-01T00:58:29;6.70;;;1.80;;
57317;SDS011;43157;50.982;18.132;2022-09-01T01:00:55;6.30;;;1.70;;
57317;SDS011;43157;50.982;18.132;2022-09-01T01:03:20;7.70;;;2.00;;
57317;SDS011;43157;50.982;18.132;2022-09-01T01:05:50;8.30;;;2.10;;
57317;SDS011;43157;50.982;18.132;2022-09-01T01:08:23;9.40;;;1.90;;
57317;SDS011;43157;50.982;18.132;2022-09-01T01:11:08;9.80;;;2.00;;
57317;SDS011;43157;50.982;18.132;2022-09-01T01:13:46;7.90;;;1.80;;
57317;SDS011;43157;50.982;18.132;2022-09-01T01:16:19;7.20;;;2.00;;
57317;SDS011;43157;50.982;18.132;2022-09-01T01:18:45;10.50;;;2.60;;
57317;SDS011;43157;50.982;18.132;2022-09-01T01:21:18;7.80;;;1.90;;
57317;SDS011;43157;50.982;18.132;2022-09-01T01:24:30;8.20;;;2.10;;
57317;SDS011;43157;50.982;18.132;2022-09-01T01:26:59;8.60;;;2.20;;
57317;SDS011;43157;50.982;18.132;2022-09-01T01:29:25;9.50;;;2.30;;
57317;SDS011;43157;50.982;18.132;2022-09-01T01:31:56;6.40;;;1.80;;
57317;SDS011;43157;50.982;18.132;2022-09-01T01:34:22;7.30;;;1.70;;
57317;SDS011;43157;50.982;18.132;2022-09-01T01:36:48;9.30;;;1.80;;
57317;SDS011;43157;50.982;18.132;2022-09-01T01:39:22;7.60;;;2.00;;
57317;SDS011;43157;50.982;18.132;2022-09-01T01:41:50;8.60;;;2.10;;
57317;SDS011;43157;50.982;18.132;2022-09-01T01:44:22;5.80;;;1.60;;
57317;SDS011;43157;50.982;18.132;2022-09-01T01:46:53;7.40;;;1.70;;
57317;SDS011;43157;50.982;18.132;2022-09-01T01:49:23;6.90;;;1.70;;
57317;SDS011;43157;50.982;18.132;2022-09-01T01:51:53;8.70;;;1.80;;
57317;SDS011;43157;50.982;18.132;2022-09-01T01:54:21;6.30;;;1.90;;
57317;SDS011;43157;50.982;18.132;2022-09-01T01:56:55;8.70;;;1.80;;
57317;SDS011;43157;50.982;18.132;2022-09-01T01:59:25;6.70;;;1.70;;
57317;SDS011;43157;50.982;18.132;2022-09-01T02:01:53;7.90;;;1.50;;
57317;SDS011;43157;50.982;18.132;2022-09-01T02:04:21;8.20;;;1.60;;
57317;SDS011;43157;50.982;18.132;2022-09-01T02:06:47;7.10;;;1.50;;
57317;SDS011;43157;50.982;18.132;2022-09-01T02:09:15;9.20;;;1.90;;
57317;SDS011;43157;50.982;18.132;2022-09-01T02:11:42;5.20;;;1.50;;
57317;SDS011;43157;50.982;18.132;2022-09-01T02:14:09;7.20;;;1.70;;
57317;SDS011;43157;50.982;18.132;2022-09-01T02:16:35;8.60;;;1.70;;
57317;SDS011;43157;50.982;18.132;2022-09-01T02:19:02;10.40;;;1.60;;
57317;SDS011;43157;50.982;18.132;2022-09-01T02:21:31;9.60;;;2.20;;
57317;SDS011;43157;50.982;18.132;2022-09-01T02:23:58;6.80;;;1.90;;
57317;SDS011;43157;50.982;18.132;2022-09-01T02:26:31;7.50;;;1.80;;
57317;SDS011;43157;50.982;18.132;2022-09-01T02:28:59;8.40;;;1.90;;
57317;SDS011;43157;50.982;18.132;2022-09-01T02:31:30;7.10;;;1.80;;
57317;SDS011;43157;50.982;18.132;2022-09-01T02:34:00;8.00;;;2.10;;
57317;SDS011;43157;50.982;18.132;2022-09-01T02:36:26;7.70;;;1.70;;
57317;SDS011;43157;50.982;18.132;2022-09-01T02:38:53;6.70;;;1.70;;
57317;SDS011;43157;50.982;18.132;2022-09-01T02:41:19;7.20;;;1.90;;
57317;SDS011;43157;50.982;18.132;2022-09-01T02:43:51;8.10;;;1.80;;
57317;SDS011;43157;50.982;18.132;2022-09-01T02:46:18;7.80;;;1.90;;
57317;SDS011;43157;50.982;18.132;2022-09-01T02:48:48;8.40;;;2.00;;
57317;SDS011;43157;50.982;18.132;2022-09-01T02:51:16;7.60;;;2.10;;
57317;SDS011;43157;50.982;18.132;2022-09-01T02:53:44;6.90;;;1.80;;
57317;SDS011;43157;50.982;18.132;2022-09-01T02:56:14;8.40;;;1.70;;
57317;SDS011;43157;50.982;18.132;2022-09-01T02:58:42;6.70;;;1.80;;
57317;SDS011;43157;50.982;18.132;2022-09-01T03:01:13;6.20;;;2.10;;
57317;SDS011;43157;50.982;18.132;2022-09-01T03:03:45;9.20;;;2.10;;
57317;SDS011;43157;50.982;18.132;2022-09-01T03:06:11;7.80;;;2.20;;
57317;SDS011;43157;50.982;18.132;2022-09-01T03:08:37;7.50;;;1.90;;
57317;SDS011;43157;50.982;18.132;2022-09-01T03:11:04;8.90;;;1.80;;
57317;SDS011;43157;50.982;18.132;2022-09-01T03:13:36;8.80;;;2.00;;
57317;SDS011;43157;50.982;18.132;2022-09-01T03:16:04;9.60;;;2.40;;
57317;SDS011;43157;50.982;18.132;2022-09-01T03:18:33;6.50;;;2.00;;
57317;SDS011;43157;50.982;18.132;2022-09-01T03:20:59;9.40;;;2.00;;
57317;SDS011;43157;50.982;18.132;2022-09-01T03:23:27;6.60;;;1.90;;
57317;SDS011;43157;50.982;18.132;2022-09-01T03:25:54;6.50;;;1.90;;
57317;SDS011;43157;50.982;18.132;2022-09-01T03:28:20;7.10;;;2.10;;
57317;SDS011;43157;50.982;18.132;2022-09-01T03:30:47;6.80;;;2.00;;
57317;SDS011;43157;50.982;18.132;2022-09-01T03:33:15;6.90;;;1.80;;
57317;SDS011;43157;50.982;18.132;2022-09-01T03:35:42;8.90;;;1.80;;
57317;SDS011;43157;50.982;18.132;2022-09-01T03:38:09;6.90;;;2.20;;
57317;SDS011;43157;50.982;18.132;2022-09-01T03:40:37;7.10;;;2.10;;
57317;SDS011;43157;50.982;18.132;2022-09-01T03:43:05;7.10;;;2.10;;
57317;SDS011;43157;50.982;18.132;2022-09-01T03:45:37;6.10;;;1.80;;
57317;SDS011;43157;50.982;18.132;2022-09-01T03:48:03;9.00;;;2.30;;
57317;SDS011;43157;50.982;18.132;2022-09-01T03:50:34;7.20;;;2.10;;
57317;SDS011;43157;50.982;18.132;2022-09-01T03:53:05;9.50;;;1.90;;
57317;SDS011;43157;50.982;18.132;2022-09-01T03:55:33;8.00;;;2.00;;
57317;SDS011;43157;50.982;18.132;2022-09-01T03:58:01;6.60;;;2.20;;
57317;SDS011;43157;50.982;18.132;2022-09-01T04:00:31;7.80;;;2.00;;
57317;SDS011;43157;50.982;18.132;2022-09-01T04:03:01;8.80;;;1.90;;
57317;SDS011;43157;50.982;18.132;2022-09-01T04:05:29;8.30;;;1.90;;
57317;SDS011;43157;50.982;18.132;2022-09-01T04:07:59;7.50;;;2.00;;
57317;SDS011;43157;50.982;18.132;2022-09-01T04:10:31;7.50;;;2.10;;
57317;SDS011;43157;50.982;18.132;2022-09-01T04:12:58;8.00;;;1.80;;
57317;SDS011;43157;50.982;18.132;2022-09-01T04:15:25;7.20;;;1.70;;
57317;SDS011;43157;50.982;18.132;2022-09-01T04:17:52;7.90;;;2.10;;
57317;SDS011;43157;50.982;18.132;2022-09-01T04:27:57;6.80;;;1.90;;
57317;SDS011;43157;50.982;18.132;2022-09-01T04:30:22;6.70;;;1.80;;
57317;SDS011;43157;50.982;18.132;2022-09-01T04:32:56;9.60;;;2.00;;
57317;SDS011;43157;50.982;18.132;2022-09-01T04:35:22;7.10;;;2.00;;
57317;SDS011;43157;50.982;18.132;2022-09-01T04:37:52;6.20;;;1.80;;
57317;SDS011;43157;50.982;18.132;2022-09-01T04:40:19;6.90;;;2.00;;
57317;SDS011;43157;50.982;18.132;2022-09-01T04:42:48;7.20;;;1.80;;
57317;SDS011;43157;50.982;18.132;2022-09-01T04:45:14;9.10;;;2.50;;
57317;SDS011;43157;50.982;18.132;2022-09-01T04:47:41;7.20;;;2.00;;
57317;SDS011;43157;50.982;18.132;2022-09-01T04:50:08;8.40;;;2.00;;
57317;SDS011;43157;50.982;18.132;2022-09-01T04:52:42;8.00;;;1.50;;
57317;SDS011;43157;50.982;18.132;2022-09-01T04:55:12;7.40;;;1.90;;
57317;SDS011;43157;50.982;18.132;2022-09-01T04:57:47;7.30;;;1.50;;
57317;SDS011;43157;50.982;18.132;2022-09-01T05:00:18;7.30;;;1.60;;
57317;SDS011;43157;50.982;18.132;2022-09-01T05:02:49;7.60;;;1.60;;
57317;SDS011;43157;50.982;18.132;2022-09-01T05:05:18;7.40;;;1.80;;
57317;SDS011;43157;50.982;18.132;2022-09-01T05:07:46;5.90;;;1.90;;
57317;SDS011;43157;50.982;18.132;2022-09-01T05:10:18;9.10;;;1.90;;
57317;SDS011;43157;50.982;18.132;2022-09-01T05:12:45;6.90;;;1.90;;
57317;SDS011;43157;50.982;18.132;2022-09-01T05:15:13;7.60;;;1.70;;
57317;SDS011;43157;50.982;18.132;2022-09-01T05:17:40;9.40;;;1.80;;
57317;SDS011;43157;50.982;18.132;2022-09-01T05:20:07;8.20;;;1.40;;
57317;SDS011;43157;50.982;18.132;2022-09-01T05:22:34;6.40;;;1.80;;
57317;SDS011;43157;50.982;18.132;2022-09-01T05:25:02;7.60;;;2.00;;
57317;SDS011;43157;50.982;18.132;2022-09-01T05:27:38;6.20;;;1.70;;
57317;SDS011;43157;50.982;18.132;2022-09-01T05:30:06;8.40;;;1.50;;
57317;SDS011;43157;50.982;18.132;2022-09-01T05:32:36;7.00;;;1.90;;
57317;SDS011;43157;50.982;18.132;2022-09-01T05:35:03;5.40;;;1.70;;
57317;SDS011;43157;50.982;18.132;2022-09-01T05:37:33;9.00;;;1.80;;
57317;SDS011;43157;50.982;18.132;2022-09-01T05:40:05;6.30;;;1.80;;
57317;SDS011;43157;50.982;18.132;2022-09-01T05:42:34;6.70;;;1.80;;
57317;SDS011;43157;50.982;18.132;2022-09-01T05:45:03;6.20;;;1.60;;
57317;SDS011;43157;50.982;18.132;2022-09-01T05:47:30;7.40;;;1.90;;
57317;SDS011;43157;50.982;18.132;2022-09-01T05:50:02;9.00;;;2.10;;
57317;SDS011;43157;50.982;18.132;2022-09-01T05:52:33;6.40;;;1.50;;
57317;SDS011;43157;50.982;18.132;2022-09-01T05:54:59;6.30;;;1.80;;
57317;SDS011;43157;50.982;18.132;2022-09-01T05:57:26;10.80;;;2.00;;
57317;SDS011;43157;50.982;18.132;2022-09-01T05:59:52;8.80;;;1.40;;
57317;SDS011;43157;50.982;18.132;2022-09-01T06:02:21;6.90;;;1.60;;
57317;SDS011;43157;50.982;18.132;2022-09-01T06:04:47;6.50;;;1.20;;
57317;SDS011;43157;50.982;18.132;2022-09-01T06:07:17;6.70;;;2.10;;
57317;SDS011;43157;50.982;18.132;2022-09-01T06:09:45;6.30;;;1.50;;
57317;SDS011;43157;50.982;18.132;2022-09-01T06:12:12;5.20;;;1.50;;
57317;SDS011;43157;50.982;18.132;2022-09-01T06:14:43;7.30;;;1.70;;
57317;SDS011;43157;50.982;18.132;2022-09-01T06:17:10;4.80;;;1.10;;
57317;SDS011;43157;50.982;18.132;2022-09-01T06:19:38;5.80;;;1.10;;
57317;SDS011;43157;50.982;18.132;2022-09-01T06:22:04;5.00;;;1.10;;
57317;SDS011;43157;50.982;18.132;2022-09-01T06:24:30;5.00;;;1.00;;
57317;SDS011;43157;50.982;18.132;2022-09-01T06:26:55;4.80;;;1.00;;
57317;SDS011;43157;50.982;18.132;2022-09-01T06:29:21;6.10;;;1.20;;
57317;SDS011;43157;50.982;18.132;2022-09-01T06:31:47;6.00;;;0.90;;
57317;SDS011;43157;50.982;18.132;2022-09-01T06:34:17;4.40;;;0.90;;
57317;SDS011;43157;50.982;18.132;2022-09-01T06:36:44;5.80;;;1.10;;
57317;SDS011;43157;50.982;18.132;2022-09-01T06:39:12;6.40;;;0.80;;
57317;SDS011;43157;50.982;18.132;2022-09-01T06:41:47;4.30;;;0.70;;
57317;SDS011;43157;50.982;18.132;2022-09-01T06:44:15;3.10;;;0.50;;
57317;SDS011;43157;50.982;18.132;2022-09-01T06:46:47;5.20;;;0.60;;
57317;SDS011;43157;50.982;18.132;2022-09-01T06:49:14;4.50;;;0.70;;
57317;SDS011;43157;50.982;18.132;2022-09-01T06:51:39;4.20;;;0.60;;
57317;SDS011;43157;50.982;18.132;2022-09-01T06:54:05;4.50;;;0.90;;
57317;SDS011;43157;50.982;18.132;2022-09-01T06:56:31;3.00;;;0.50;;
57317;SDS011;43157;50.982;18.132;2022-09-01T06:58:59;4.20;;;0.80;;
57317;SDS011;43157;50.982;18.132;2022-09-01T07:01:28;2.60;;;0.40;;
57317;SDS011;43157;50.982;18.132;2022-09-01T07:03:54;4.40;;;0.60;;
57317;SDS011;43157;50.982;18.132;2022-09-01T07:06:23;6.50;;;0.50;;
57317;SDS011;43157;50.982;18.132;2022-09-01T07:08:52;1.90;;;0.40;;
57317;SDS011;43157;50.982;18.132;2022-09-01T07:11:22;4.20;;;0.60;;
57317;SDS011;43157;50.982;18.132;2022-09-01T07:13:56;1.80;;;0.40;;
57317;SDS011;43157;50.982;18.132;2022-09-01T07:16:24;2.10;;;0.40;;
57317;SDS011;43157;50.982;18.132;2022-09-01T07:18:51;1.50;;;0.20;;
57317;SDS011;43157;50.982;18.132;2022-09-01T07:21:23;5.90;;;0.50;;
57317;SDS011;43157;50.982;18.132;2022-09-01T07:23:49;3.60;;;0.40;;
57317;SDS011;43157;50.982;18.132;2022-09-01T07:26:15;3.90;;;0.50;;
57317;SDS011;43157;50.982;18.132;2022-09-01T07:28:46;2.30;;;0.40;;
57317;SDS011;43157;50.982;18.132;2022-09-01T07:31:36;3.80;;;0.50;;
57317;SDS011;43157;50.982;18.132;2022-09-01T07:34:04;3.50;;;0.40;;
57317;SDS011;43157;50.982;18.132;2022-09-01T07:36:37;5.50;;;0.50;;
57317;SDS011;43157;50.982;18.132;2022-09-01T07:39:04;5.00;;;0.90;;
57317;SDS011;43157;50.982;18.132;2022-09-01T07:41:30;2.00;;;0.30;;
57317;SDS011;43157;50.982;18.132;2022-09-01T07:43:58;2.70;;;0.50;;
57317;SDS011;43157;50.982;18.132;2022-09-01T07:46:25;1.80;;;0.30;;
57317;SDS011;43157;50.982;18.132;2022-09-01T07:48:51;4.60;;;0.40;;
57317;SDS011;43157;50.982;18.132;2022-09-01T07:51:20;2.10;;;0.30;;
57317;SDS011;43157;50.982;18.132;2022-09-01T07:53:47;3.10;;;0.50;;
57317;SDS011;43157;50.982;18.132;2022-09-01T07:56:16;1.70;;;0.40;;
57317;SDS011;43157;50.982;18.132;2022-09-01T07:58:45;2.00;;;0.40;;
57317;SDS011;43157;50.982;18.132;2022-09-01T08:01:13;3.00;;;0.40;;
57317;SDS011;43157;50.982;18.132;2022-09-01T08:03:47;4.60;;;0.40;;
57317;SDS011;43157;50.982;18.132;2022-09-01T08:06:16;4.50;;;0.50;;
57317;SDS011;43157;50.982;18.132;2022-09-01T08:08:47;2.00;;;0.30;;
57317;SDS011;43157;50.982;18.132;2022-09-01T08:11:17;4.10;;;0.50;;
57317;SDS011;43157;50.982;18.132;2022-09-01T08:13:49;3.80;;;0.40;;
57317;SDS011;43157;50.982;18.132;2022-09-01T08:16:16;3.10;;;0.40;;
57317;SDS011;43157;50.982;18.132;2022-09-01T08:18:42;2.90;;;0.50;;
57317;SDS011;43157;50.982;18.132;2022-09-01T08:21:10;3.10;;;0.40;;
57317;SDS011;43157;50.982;18.132;2022-09-01T08:23:37;4.30;;;0.40;;
57317;SDS011;43157;50.982;18.132;2022-09-01T08:26:06;1.90;;;0.30;;
57317;SDS011;43157;50.982;18.132;2022-09-01T08:28:33;2.80;;;0.50;;
57317;SDS011;43157;50.982;18.132;2022-09-01T08:31:04;1.80;;;0.30;;
57317;SDS011;43157;50.982;18.132;2022-09-01T08:33:33;5.60;;;0.60;;
57317;SDS011;43157;50.982;18.132;2022-09-01T08:36:00;4.00;;;0.30;;
57317;SDS011;43157;50.982;18.132;2022-09-01T08:38:26;2.80;;;0.40;;
57317;SDS011;43157;50.982;18.132;2022-09-01T08:40:53;3.80;;;0.40;;
57317;SDS011;43157;50.982;18.132;2022-09-01T08:46:23;2.00;;;0.30;;
57317;SDS011;43157;50.982;18.132;2022-09-01T08:48:52;1.70;;;0.40;;
57317;SDS011;43157;50.982;18.132;2022-09-01T08:51:37;2.40;;;0.40;;
57317;SDS011;43157;50.982;18.132;2022-09-01T08:56:37;2.50;;;0.40;;
57317;SDS011;43157;50.982;18.132;2022-09-01T08:59:03;4.60;;;0.40;;
57317;SDS011;43157;50.982;18.132;2022-09-01T09:01:39;2.80;;;0.40;;
57317;SDS011;43157;50.982;18.132;2022-09-01T09:07:09;2.10;;;0.40;;
57317;SDS011;43157;50.982;18.132;2022-09-01T09:09:50;2.10;;;0.30;;
57317;SDS011;43157;50.982;18.132;2022-09-01T09:12:26;2.90;;;0.30;;
57317;SDS011;43157;50.982;18.132;2022-09-01T09:15:17;3.00;;;0.30;;
57317;SDS011;43157;50.982;18.132;2022-09-01T09:17:51;1.90;;;0.30;;
57317;SDS011;43157;50.982;18.132;2022-09-01T09:20:26;2.50;;;0.30;;
57317;SDS011;43157;50.982;18.132;2022-09-01T09:22:52;2.20;;;0.20;;
57317;SDS011;43157;50.982;18.132;2022-09-01T09:25:20;1.10;;;0.30;;
57317;SDS011;43157;50.982;18.132;2022-09-01T09:27:47;3.80;;;0.60;;
57317;SDS011;43157;50.982;18.132;2022-09-01T09:30:15;2.30;;;0.30;;
57317;SDS011;43157;50.982;18.132;2022-09-01T09:35:23;2.40;;;0.30;;
57317;SDS011;43157;50.982;18.132;2022-09-01T09:37:52;1.90;;;0.30;;
57317;SDS011;43157;50.982;18.132;2022-09-01T09:40:19;5.50;;;0.40;;
57317;SDS011;43157;50.982;18.132;2022-09-01T09:45:28;3.90;;;0.50;;
57317;SDS011;43157;50.982;18.132;2022-09-01T09:47:58;3.70;;;0.40;;
57317;SDS011;43157;50.982;18.132;2022-09-01T09:50:28;1.30;;;0.30;;
57317;SDS011;43157;50.982;18.132;2022-09-01T09:53:10;1.90;;;0.20;;
57317;SDS011;43157;50.982;18.132;2022-09-01T09:55:36;2.10;;;0.20;;
57317;SDS011;43157;50.982;18.132;2022-09-01T09:58:35;1.20;;;0.20;;
57317;SDS011;43157;50.982;18.132;2022-09-01T10:03:58;1.50;;;0.20;;
57317;SDS011;43157;50.982;18.132;2022-09-01T10:09:14;1.10;;;0.30;;
57317;SDS011;43157;50.982;18.132;2022-09-01T10:11:43;2.20;;;0.30;;
57317;SDS011;43157;50.982;18.132;2022-09-01T10:14:24;1.80;;;0.30;;
57317;SDS011;43157;50.982;18.132;2022-09-01T10:17:01;1.00;;;0.20;;
57317;SDS011;43157;50.982;18.132;2022-09-01T10:19:30;0.90;;;0.10;;
57317;SDS011;43157;50.982;18.132;2022-09-01T10:21:57;1.60;;;0.30;;
57317;SDS011;43157;50.982;18.132;2022-09-01T10:26:50;3.70;;;0.30;;
57317;SDS011;43157;50.982;18.132;2022-09-01T10:29:29;1.30;;;0.20;;
57317;SDS011;43157;50.982;18.132;2022-09-01T10:31:57;2.50;;;0.20;;
57317;SDS011;43157;50.982;18.132;2022-09-01T10:34:25;1.70;;;0.30;;
57317;SDS011;43157;50.982;18.132;2022-09-01T10:36:52;2.90;;;0.20;;
57317;SDS011;43157;50.982;18.132;2022-09-01T10:39:19;1.80;;;0.30;;
57317;SDS011;43157;50.982;18.132;2022-09-01T10:41:55;1.00;;;0.20;;
57317;SDS011;43157;50.982;18.132;2022-09-01T10:44:23;1.20;;;0.20;;
57317;SDS011;43157;50.982;18.132;2022-09-01T10:47:00;3.20;;;0.20;;
57317;SDS011;43157;50.982;18.132;2022-09-01T10:51:59;2.90;;;0.50;;
57317;SDS011;43157;50.982;18.132;2022-09-01T10:57:04;2.60;;;0.30;;
57317;SDS011;43157;50.982;18.132;2022-09-01T10:59:46;1.40;;;0.20;;
57317;SDS011;43157;50.982;18.132;2022-09-01T11:02:16;4.10;;;0.40;;
57317;SDS011;43157;50.982;18.132;2022-09-01T11:09:44;2.70;;;0.40;;
57317;SDS011;43157;50.982;18.132;2022-09-01T11:15:33;1.40;;;0.30;;
57317;SDS011;43157;50.982;18.132;2022-09-01T11:18:01;1.70;;;0.30;;
57317;SDS011;43157;50.982;18.132;2022-09-01T11:20:30;3.50;;;0.40;;
57317;SDS011;43157;50.982;18.132;2022-09-01T11:28:00;1.00;;;0.20;;
57317;SDS011;43157;50.982;18.132;2022-09-01T11:32:57;2.30;;;0.40;;
57317;SDS011;43157;50.982;18.132;2022-09-01T11:35:26;2.00;;;0.20;;
57317;SDS011;43157;50.982;18.132;2022-09-01T11:37:54;1.50;;;0.30;;
57317;SDS011;43157;50.982;18.132;2022-09-01T11:40:31;3.50;;;0.30;;
57317;SDS011;43157;50.982;18.132;2022-09-01T11:42:59;1.60;;;0.20;;
57317;SDS011;43157;50.982;18.132;2022-09-01T11:45:30;1.30;;;0.10;;
57317;SDS011;43157;50.982;18.132;2022-09-01T11:47:59;1.10;;;0.20;;
57317;SDS011;43157;50.982;18.132;2022-09-01T11:50:31;1.20;;;0.20;;
57317;SDS011;43157;50.982;18.132;2022-09-01T11:55:38;5.30;;;0.20;;
57317;SDS011;43157;50.982;18.132;2022-09-01T11:58:12;2.60;;;0.20;;
57317;SDS011;43157;50.982;18.132;2022-09-01T12:00:43;1.70;;;0.30;;
57317;SDS011;43157;50.982;18.132;2022-09-01T12:03:21;4.00;;;0.30;;
57317;SDS011;43157;50.982;18.132;2022-09-01T12:05:53;0.80;;;0.20;;
57317;SDS011;43157;50.982;18.132;2022-09-01T12:08:29;0.90;;;0.20;;
57317;SDS011;43157;50.982;18.132;2022-09-01T12:11:02;5.10;;;0.30;;
57317;SDS011;43157;50.982;18.132;2022-09-01T12:13:30;0.40;;;0.10;;
57317;SDS011;43157;50.982;18.132;2022-09-01T12:15:58;0.80;;;0.20;;
57317;SDS011;43157;50.982;18.132;2022-09-01T12:18:26;2.00;;;0.30;;
57317;SDS011;43157;50.982;18.132;2022-09-01T12:20:58;1.90;;;0.30;;
57317;SDS011;43157;50.982;18.132;2022-09-01T12:23:44;0.80;;;0.30;;
57317;SDS011;43157;50.982;18.132;2022-09-01T12:26:15;2.30;;;0.30;;
57317;SDS011;43157;50.982;18.132;2022-09-01T12:28:49;1.50;;;0.30;;
57317;SDS011;43157;50.982;18.132;2022-09-01T12:31:17;2.20;;;0.30;;
57317;SDS011;43157;50.982;18.132;2022-09-01T12:33:45;1.40;;;0.20;;
57317;SDS011;43157;50.982;18.132;2022-09-01T12:36:20;2.60;;;0.30;;
57317;SDS011;43157;50.982;18.132;2022-09-01T12:38:51;1.50;;;0.30;;
57317;SDS011;43157;50.982;18.132;2022-09-01T12:41:25;1.40;;;0.20;;
57317;SDS011;43157;50.982;18.132;2022-09-01T12:44:24;0.70;;;0.10;;
57317;SDS011;43157;50.982;18.132;2022-09-01T12:47:02;1.70;;;0.10;;
57317;SDS011;43157;50.982;18.132;2022-09-01T12:49:35;1.90;;;0.10;;
57317;SDS011;43157;50.982;18.132;2022-09-01T12:52:10;1.80;;;0.10;;
57317;SDS011;43157;50.982;18.132;2022-09-01T12:54:38;0.90;;;0.10;;
57317;SDS011;43157;50.982;18.132;2022-09-01T12:57:03;0.90;;;0.20;;
57317;SDS011;43157;50.982;18.132;2022-09-01T12:59:29;1.80;;;0.30;;
57317;SDS011;43157;50.982;18.132;2022-09-01T13:01:55;0.90;;;0.20;;
57317;SDS011;43157;50.982;18.132;2022-09-01T13:04:22;1.20;;;0.20;;
57317;SDS011;43157;50.982;18.132;2022-09-01T13:06:51;0.80;;;0.20;;
57317;SDS011;43157;50.982;18.132;2022-09-01T13:09:18;2.10;;;0.30;;
57317;SDS011;43157;50.982;18.132;2022-09-01T13:11:44;1.90;;;0.30;;
57317;SDS011;43157;50.982;18.132;2022-09-01T13:14:14;1.30;;;0.10;;
57317;SDS011;43157;50.982;18.132;2022-09-01T13:16:40;3.30;;;0.30;;
57317;SDS011;43157;50.982;18.132;2022-09-01T13:19:06;3.60;;;0.30;;
57317;SDS011;43157;50.982;18.132;2022-09-01T13:21:33;2.50;;;0.30;;
57317;SDS011;43157;50.982;18.132;2022-09-01T13:24:00;2.40;;;0.20;;
57317;SDS011;43157;50.982;18.132;2022-09-01T13:26:28;0.80;;;0.20;;
57317;SDS011;43157;50.982;18.132;2022-09-01T13:28:56;0.40;;;0.10;;
57317;SDS011;43157;50.982;18.132;2022-09-01T13:31:23;4.90;;;0.40;;
57317;SDS011;43157;50.982;18.132;2022-09-01T13:33:48;2.10;;;0.20;;
57317;SDS011;43157;50.982;18.132;2022-09-01T13:36:14;1.60;;;0.10;;
57317;SDS011;43157;50.982;18.132;2022-09-01T13:38:40;0.60;;;0.20;;
57317;SDS011;43157;50.982;18.132;2022-09-01T13:41:06;3.70;;;0.30;;
57317;SDS011;43157;50.982;18.132;2022-09-01T13:43:35;1.60;;;0.40;;
57317;SDS011;43157;50.982;18.132;2022-09-01T13:46:02;1.50;;;0.30;;
57317;SDS011;43157;50.982;18.132;2022-09-01T13:48:28;0.80;;;0.10;;
57317;SDS011;43157;50.982;18.132;2022-09-01T13:50:53;2.30;;;0.10;;
57317;SDS011;43157;50.982;18.132;2022-09-01T13:53:20;1.40;;;0.20;;
57317;SDS011;43157;50.982;18.132;2022-09-01T13:55:46;1.60;;;0.30;;
57317;SDS011;43157;50.982;18.132;2022-09-01T13:58:13;3.20;;;0.30;;
57317;SDS011;43157;50.982;18.132;2022-09-01T14:00:40;1.30;;;0.20;;
57317;SDS011;43157;50.982;18.132;2022-09-01T14:03:10;0.40;;;0.10;;
57317;SDS011;43157;50.982;18.132;2022-09-01T14:05:41;0.70;;;0.10;;
57317;SDS011;43157;50.982;18.132;2022-09-01T14:08:09;1.50;;;0.10;;
57317;SDS011;43157;50.982;18.132;2022-09-01T14:10:41;2.20;;;0.20;;
57317;SDS011;43157;50.982;18.132;2022-09-01T14:13:09;2.10;;;0.20;;
57317;SDS011;43157;50.982;18.132;2022-09-01T14:15:36;1.00;;;0.20;;
57317;SDS011;43157;50.982;18.132;2022-09-01T14:18:02;4.40;;;0.30;;
57317;SDS011;43157;50.982;18.132;2022-09-01T14:20:33;1.40;;;0.20;;
57317;SDS011;43157;50.982;18.132;2022-09-01T14:23:01;0.80;;;0.20;;
57317;SDS011;43157;50.982;18.132;2022-09-01T14:25:28;0.40;;;0.20;;
57317;SDS011;43157;50.982;18.132;2022-09-01T14:27:59;0.80;;;0.10;;
57317;SDS011;43157;50.982;18.132;2022-09-01T14:30:27;0.90;;;0.10;;
57317;SDS011;43157;50.982;18.132;2022-09-01T14:32:53;2.50;;;0.20;;
57317;SDS011;43157;50.982;18.132;2022-09-01T14:35:19;3.80;;;0.20;;
57317;SDS011;43157;50.982;18.132;2022-09-01T14:37:49;1.90;;;0.10;;
57317;SDS011;43157;50.982;18.132;2022-09-01T14:40:16;1.40;;;0.10;;
57317;SDS011;43157;50.982;18.132;2022-09-01T14:42:43;1.60;;;0.20;;
57317;SDS011;43157;50.982;18.132;2022-09-01T14:45:14;2.50;;;0.20;;
57317;SDS011;43157;50.982;18.132;2022-09-01T14:47:43;0.50;;;0.10;;
57317;SDS011;43157;50.982;18.132;2022-09-01T14:50:14;1.00;;;0.10;;
57317;SDS011;43157;50.982;18.132;2022-09-01T14:52:41;1.00;;;0.20;;
57317;SDS011;43157;50.982;18.132;2022-09-01T14:55:08;1.20;;;0.20;;
57317;SDS011;43157;50.982;18.132;2022-09-01T14:57:34;1.10;;;0.20;;
57317;SDS011;43157;50.982;18.132;2022-09-01T14:59:59;2.00;;;0.20;;
57317;SDS011;43157;50.982;18.132;2022-09-01T15:02:25;2.40;;;0.20;;
57317;SDS011;43157;50.982;18.132;2022-09-01T15:04:53;2.30;;;0.20;;
57317;SDS011;43157;50.982;18.132;2022-09-01T15:07:20;1.50;;;0.20;;
57317;SDS011;43157;50.982;18.132;2022-09-01T15:09:45;1.30;;;0.10;;
57317;SDS011;43157;50.982;18.132;2022-09-01T15:12:11;1.00;;;0.30;;
57317;SDS011;43157;50.982;18.132;2022-09-01T15:14:37;6.00;;;0.60;;
57317;SDS011;43157;50.982;18.132;2022-09-01T15:17:03;0.80;;;0.10;;
57317;SDS011;43157;50.982;18.132;2022-09-01T15:19:29;2.20;;;0.20;;
57317;SDS011;43157;50.982;18.132;2022-09-01T15:21:55;3.00;;;0.20;;
57317;SDS011;43157;50.982;18.132;2022-09-01T15:24:21;2.10;;;0.20;;
57317;SDS011;43157;50.982;18.132;2022-09-01T15:26:48;1.20;;;0.20;;
57317;SDS011;43157;50.982;18.132;2022-09-01T15:29:14;2.10;;;0.20;;
57317;SDS011;43157;50.982;18.132;2022-09-01T15:31:42;5.90;;;0.30;;
57317;SDS011;43157;50.982;18.132;2022-09-01T15:34:08;0.50;;;0.10;;
57317;SDS011;43157;50.982;18.132;2022-09-01T15:36:35;2.50;;;0.20;;
57317;SDS011;43157;50.982;18.132;2022-09-01T15:39:06;2.10;;;0.20;;